sensor_id;sensor_type;location;lat;lon;timestamp;temperature;humidity
76120;DHT22;64852;48.092;-1.640;2022-11-28T00:01:07;12.90;99.90
76120;DHT22;64852;48.092;-1.640;2022-11-28T00:03:33;12.80;99.90
76120;DHT22;64852;48.092;-1.640;2022-11-28T00:06:03;12.80;99.90
76120;DHT22;64852;48.092;-1.640;2022-11-28T00:08:29;12.80;99.90
76120;DHT22;64852;48.092;-1.640;2022-11-28T00:10:55;12.80;99.90
76120;DHT22;64852;48.092;-1.640;2022-11-28T00:13:21;12.80;99.90
76120;DHT22;64852;48.092;-1.640;2022-11-28T00:15:57;12.80;99.90
76120;DHT22;64852;48.092;-1.640;2022-11-28T00:18:23;12.80;99.90
76120;DHT22;64852;48.092;-1.640;2022-11-28T00:20:49;12.70;99.90
76120;DHT22;64852;48.092;-1.640;2022-11-28T00:23:14;12.70;99.90
76120;DHT22;64852;48.092;-1.640;2022-11-28T00:25:40;12.80;99.90
76120;DHT22;64852;48.092;-1.640;2022-11-28T00:28:06;12.90;99.90
76120;DHT22;64852;48.092;-1.640;2022-11-28T00:30:35;13.10;99.90
76120;DHT22;64852;48.092;-1.640;2022-11-28T00:33:01;13.20;99.90
76120;DHT22;64852;48.092;-1.640;2022-11-28T00:35:26;13.20;99.90
76120;DHT22;64852;48.092;-1.640;2022-11-28T00:37:52;13.20;99.90
76120;DHT22;64852;48.092;-1.640;2022-11-28T00:40:18;13.20;99.90
76120;DHT22;64852;48.092;-1.640;2022-11-28T00:42:43;13.20;99.90
76120;DHT22;64852;48.092;-1.640;2022-11-28T00:45:09;13.20;99.90
76120;DHT22;64852;48.092;-1.640;2022-11-28T00:47:35;13.30;99.90
76120;DHT22;64852;48.092;-1.640;2022-11-28T00:50:00;13.20;99.90
76120;DHT22;64852;48.092;-1.640;2022-11-28T00:52:26;13.20;99.90
76120;DHT22;64852;48.092;-1.640;2022-11-28T00:54:52;13.20;99.90
76120;DHT22;64852;48.092;-1.640;2022-11-28T00:57:17;13.10;99.90
76120;DHT22;64852;48.092;-1.640;2022-11-28T00:59:43;13.00;99.90
76120;DHT22;64852;48.092;-1.640;2022-11-28T01:02:08;13.00;99.90
76120;DHT22;64852;48.092;-1.640;2022-11-28T01:04:34;13.00;99.90
76120;DHT22;64852;48.092;-1.640;2022-11-28T01:06:59;13.10;99.90
76120;DHT22;64852;48.092;-1.640;2022-11-28T01:09:26;13.00;99.90
76120;DHT22;64852;48.092;-1.640;2022-11-28T01:11:53;13.00;99.90
76120;DHT22;64852;48.092;-1.640;2022-11-28T01:14:19;12.90;99.90
76120;DHT22;64852;48.092;-1.640;2022-11-28T01:16:45;13.00;99.90
76120;DHT22;64852;48.092;-1.640;2022-11-28T01:19:11;12.90;99.90
76120;DHT22;64852;48.092;-1.640;2022-11-28T01:21:38;12.90;99.90
76120;DHT22;64852;48.092;-1.640;2022-11-28T01:24:04;12.90;99.90
76120;DHT22;64852;48.092;-1.640;2022-11-28T01:26:30;12.80;99.90
76120;DHT22;64852;48.092;-1.640;2022-11-28T01:28:56;12.90;99.90
76120;DHT22;64852;48.092;-1.640;2022-11-28T01:31:25;12.80;99.90
76120;DHT22;64852;48.092;-1.640;2022-11-28T01:33:51;12.80;99.90
76120;DHT22;64852;48.092;-1.640;2022-11-28T01:36:17;12.80;99.90
76120;DHT22;64852;48.092;-1.640;2022-11-28T01:38:44;12.70;99.90
76120;DHT22;64852;48.092;-1.640;2022-11-28T01:41:11;12.80;99.90
76120;DHT22;64852;48.092;-1.640;2022-11-28T01:43:54;12.60;99.90
76120;DHT22;64852;48.092;-1.640;2022-11-28T01:46:20;12.60;99.90
76120;DHT22;64852;48.092;-1.640;2022-11-28T01:48:46;12.60;99.90
76120;DHT22;64852;48.092;-1.640;2022-11-28T01:51:12;12.60;99.90
76120;DHT22;64852;48.092;-1.640;2022-11-28T01:53:41;12.60;99.90
76120;DHT22;64852;48.092;-1.640;2022-11-28T01:56:12;12.60;99.90
76120;DHT22;64852;48.092;-1.640;2022-11-28T01:58:41;12.50;99.90
76120;DHT22;64852;48.092;-1.640;2022-11-28T02:01:08;12.50;99.90
76120;DHT22;64852;48.092;-1.640;2022-11-28T02:03:46;12.30;99.90
76120;DHT22;64852;48.092;-1.640;2022-11-28T02:06:14;12.40;99.90
76120;DHT22;64852;48.092;-1.640;2022-11-28T02:08:40;12.40;99.90
76120;DHT22;64852;48.092;-1.640;2022-11-28T02:16:59;12.40;99.90
76120;DHT22;64852;48.092;-1.640;2022-11-28T02:25:24;14.30;99.90
76120;DHT22;64852;48.092;-1.640;2022-11-28T02:33:41;12.30;99.90
76120;DHT22;64852;48.092;-1.640;2022-11-28T02:36:11;12.20;99.90
76120;DHT22;64852;48.092;-1.640;2022-11-28T02:49:31;12.00;99.90
76120;DHT22;64852;48.092;-1.640;2022-11-28T02:52:06;12.00;99.90
76120;DHT22;64852;48.092;-1.640;2022-11-28T02:54:33;12.10;99.90
76120;DHT22;64852;48.092;-1.640;2022-11-28T02:56:59;12.00;99.90
76120;DHT22;64852;48.092;-1.640;2022-11-28T03:01:57;11.90;99.90
76120;DHT22;64852;48.092;-1.640;2022-11-28T03:13:04;11.50;99.90
76120;DHT22;64852;48.092;-1.640;2022-11-28T03:15:43;11.50;99.90
76120;DHT22;64852;48.092;-1.640;2022-11-28T03:20:59;11.40;99.90
76120;DHT22;64852;48.092;-1.640;2022-11-28T03:23:43;11.30;99.90
76120;DHT22;64852;48.092;-1.640;2022-11-28T03:26:40;11.40;99.90
76120;DHT22;64852;48.092;-1.640;2022-11-28T03:29:22;11.30;99.90
76120;DHT22;64852;48.092;-1.640;2022-11-28T03:32:02;11.40;99.90
76120;DHT22;64852;48.092;-1.640;2022-11-28T03:34:32;11.20;99.90
76120;DHT22;64852;48.092;-1.640;2022-11-28T03:37:03;11.30;99.90
76120;DHT22;64852;48.092;-1.640;2022-11-28T03:39:38;11.40;99.90
76120;DHT22;64852;48.092;-1.640;2022-11-28T03:42:21;11.40;99.90
76120;DHT22;64852;48.092;-1.640;2022-11-28T03:47:39;11.40;99.90
76120;DHT22;64852;48.092;-1.640;2022-11-28T03:50:10;11.50;99.90
76120;DHT22;64852;48.092;-1.640;2022-11-28T03:52:44;11.60;99.90
76120;DHT22;64852;48.092;-1.640;2022-11-28T03:55:21;11.70;99.90
76120;DHT22;64852;48.092;-1.640;2022-11-28T03:57:57;11.60;99.90
76120;DHT22;64852;48.092;-1.640;2022-11-28T04:00:24;11.70;99.90
76120;DHT22;64852;48.092;-1.640;2022-11-28T04:06:24;11.70;99.90
76120;DHT22;64852;48.092;-1.640;2022-11-28T04:09:01;11.60;99.90
76120;DHT22;64852;48.092;-1.640;2022-11-28T04:11:38;11.50;99.90
76120;DHT22;64852;48.092;-1.640;2022-11-28T04:14:33;11.70;99.90
76120;DHT22;64852;48.092;-1.640;2022-11-28T04:17:16;11.60;99.90
76120;DHT22;64852;48.092;-1.640;2022-11-28T04:19:49;11.60;99.90
76120;DHT22;64852;48.092;-1.640;2022-11-28T04:22:41;11.40;99.90
76120;DHT22;64852;48.092;-1.640;2022-11-28T04:25:12;11.50;99.90
76120;DHT22;64852;48.092;-1.640;2022-11-28T04:27:45;11.50;99.90
76120;DHT22;64852;48.092;-1.640;2022-11-28T04:30:12;11.40;99.90
76120;DHT22;64852;48.092;-1.640;2022-11-28T04:32:40;11.40;99.90
76120;DHT22;64852;48.092;-1.640;2022-11-28T04:35:19;11.40;99.90
76120;DHT22;64852;48.092;-1.640;2022-11-28T04:37:47;11.50;99.90
76120;DHT22;64852;48.092;-1.640;2022-11-28T04:40:15;11.50;99.90
76120;DHT22;64852;48.092;-1.640;2022-11-28T04:42:55;11.50;99.90
76120;DHT22;64852;48.092;-1.640;2022-11-28T04:45:35;11.40;99.90
76120;DHT22;64852;48.092;-1.640;2022-11-28T04:48:02;11.50;99.90
76120;DHT22;64852;48.092;-1.640;2022-11-28T04:50:49;11.40;99.90
76120;DHT22;64852;48.092;-1.640;2022-11-28T04:53:42;11.40;99.90
76120;DHT22;64852;48.092;-1.640;2022-11-28T04:56:18;11.50;99.90
76120;DHT22;64852;48.092;-1.640;2022-11-28T04:58:46;11.40;99.90
76120;DHT22;64852;48.092;-1.640;2022-11-28T05:01:24;11.30;99.90
76120;DHT22;64852;48.092;-1.640;2022-11-28T05:03:52;11.30;99.90
76120;DHT22;64852;48.092;-1.640;2022-11-28T05:06:32;11.30;99.90
76120;DHT22;64852;48.092;-1.640;2022-11-28T05:08:58;11.40;99.90
76120;DHT22;64852;48.092;-1.640;2022-11-28T05:11:24;11.30;99.90
76120;DHT22;64852;48.092;-1.640;2022-11-28T05:13:50;11.30;99.90
76120;DHT22;64852;48.092;-1.640;2022-11-28T05:16:16;11.20;99.90
76120;DHT22;64852;48.092;-1.640;2022-11-28T05:18:42;11.20;99.90
76120;DHT22;64852;48.092;-1.640;2022-11-28T05:21:08;11.40;99.90
76120;DHT22;64852;48.092;-1.640;2022-11-28T05:23:38;11.40;99.90
76120;DHT22;64852;48.092;-1.640;2022-11-28T05:26:24;11.40;99.90
76120;DHT22;64852;48.092;-1.640;2022-11-28T05:28:50;11.40;99.90
76120;DHT22;64852;48.092;-1.640;2022-11-28T05:31:18;11.40;99.90
76120;DHT22;64852;48.092;-1.640;2022-11-28T05:33:45;11.40;99.90
76120;DHT22;64852;48.092;-1.640;2022-11-28T05:36:11;11.40;99.90
76120;DHT22;64852;48.092;-1.640;2022-11-28T05:38:38;11.50;99.90
76120;DHT22;64852;48.092;-1.640;2022-11-28T05:41:04;11.50;99.90
76120;DHT22;64852;48.092;-1.640;2022-11-28T05:43:30;11.50;99.90
76120;DHT22;64852;48.092;-1.640;2022-11-28T05:45:56;11.50;99.90
76120;DHT22;64852;48.092;-1.640;2022-11-28T05:48:22;11.50;99.90
76120;DHT22;64852;48.092;-1.640;2022-11-28T05:50:48;11.50;99.90
76120;DHT22;64852;48.092;-1.640;2022-11-28T05:53:16;11.50;99.90
76120;DHT22;64852;48.092;-1.640;2022-11-28T05:55:42;11.50;99.90
76120;DHT22;64852;48.092;-1.640;2022-11-28T05:58:08;11.60;99.90
76120;DHT22;64852;48.092;-1.640;2022-11-28T06:00:34;11.60;99.90
76120;DHT22;64852;48.092;-1.640;2022-11-28T06:02:59;11.60;99.90
76120;DHT22;64852;48.092;-1.640;2022-11-28T06:05:25;11.60;99.90
76120;DHT22;64852;48.092;-1.640;2022-11-28T06:07:51;11.50;99.90
76120;DHT22;64852;48.092;-1.640;2022-11-28T06:10:17;11.60;99.90
76120;DHT22;64852;48.092;-1.640;2022-11-28T06:12:43;11.60;99.90
76120;DHT22;64852;48.092;-1.640;2022-11-28T06:15:09;11.50;99.90
76120;DHT22;64852;48.092;-1.640;2022-11-28T06:17:35;11.60;99.90
76120;DHT22;64852;48.092;-1.640;2022-11-28T06:20:00;11.60;99.90
76120;DHT22;64852;48.092;-1.640;2022-11-28T06:22:26;11.60;99.90
76120;DHT22;64852;48.092;-1.640;2022-11-28T06:24:52;11.60;99.90
76120;DHT22;64852;48.092;-1.640;2022-11-28T06:27:17;11.60;99.90
76120;DHT22;64852;48.092;-1.640;2022-11-28T06:29:43;11.60;99.90
76120;DHT22;64852;48.092;-1.640;2022-11-28T06:32:08;11.70;99.90
76120;DHT22;64852;48.092;-1.640;2022-11-28T06:34:34;11.60;99.90
76120;DHT22;64852;48.092;-1.640;2022-11-28T06:36:59;11.70;99.90
76120;DHT22;64852;48.092;-1.640;2022-11-28T06:39:25;11.70;99.90
76120;DHT22;64852;48.092;-1.640;2022-11-28T06:41:51;11.70;99.90
76120;DHT22;64852;48.092;-1.640;2022-11-28T06:44:17;11.70;99.90
76120;DHT22;64852;48.092;-1.640;2022-11-28T06:46:43;11.60;99.90
76120;DHT22;64852;48.092;-1.640;2022-11-28T06:49:11;11.70;99.90
76120;DHT22;64852;48.092;-1.640;2022-11-28T06:51:38;11.70;99.90
76120;DHT22;64852;48.092;-1.640;2022-11-28T06:54:05;11.60;99.90
76120;DHT22;64852;48.092;-1.640;2022-11-28T06:56:31;11.60;99.90
76120;DHT22;64852;48.092;-1.640;2022-11-28T06:58:58;11.70;99.90
76120;DHT22;64852;48.092;-1.640;2022-11-28T07:01:26;11.70;99.90
76120;DHT22;64852;48.092;-1.640;2022-11-28T07:03:52;11.80;99.90
76120;DHT22;64852;48.092;-1.640;2022-11-28T07:06:23;11.70;99.90
76120;DHT22;64852;48.092;-1.640;2022-11-28T07:08:49;11.80;99.90
76120;DHT22;64852;48.092;-1.640;2022-11-28T07:11:19;11.80;99.90
76120;DHT22;64852;48.092;-1.640;2022-11-28T07:13:46;11.80;99.90
76120;DHT22;64852;48.092;-1.640;2022-11-28T07:16:17;11.80;99.90
76120;DHT22;64852;48.092;-1.640;2022-11-28T07:18:43;11.70;99.90
76120;DHT22;64852;48.092;-1.640;2022-11-28T07:21:10;11.80;99.90
76120;DHT22;64852;48.092;-1.640;2022-11-28T07:23:36;11.70;99.90
76120;DHT22;64852;48.092;-1.640;2022-11-28T07:26:02;11.70;99.90
76120;DHT22;64852;48.092;-1.640;2022-11-28T07:28:29;11.60;99.90
76120;DHT22;64852;48.092;-1.640;2022-11-28T07:31:06;11.60;99.90
76120;DHT22;64852;48.092;-1.640;2022-11-28T07:33:36;11.60;99.90
76120;DHT22;64852;48.092;-1.640;2022-11-28T07:36:13;11.60;99.90
76120;DHT22;64852;48.092;-1.640;2022-11-28T07:38:39;12.50;99.90
76120;DHT22;64852;48.092;-1.640;2022-11-28T07:41:07;11.70;99.90
76120;DHT22;64852;48.092;-1.640;2022-11-28T07:43:33;11.70;99.90
76120;DHT22;64852;48.092;-1.640;2022-11-28T07:45:58;11.60;99.90
76120;DHT22;64852;48.092;-1.640;2022-11-28T07:48:24;11.60;99.90
76120;DHT22;64852;48.092;-1.640;2022-11-28T07:50:50;11.60;99.90
76120;DHT22;64852;48.092;-1.640;2022-11-28T07:53:16;11.60;99.90
76120;DHT22;64852;48.092;-1.640;2022-11-28T07:55:41;11.60;99.90
76120;DHT22;64852;48.092;-1.640;2022-11-28T07:58:07;11.50;99.90
76120;DHT22;64852;48.092;-1.640;2022-11-28T08:00:33;11.60;99.90
76120;DHT22;64852;48.092;-1.640;2022-11-28T08:02:58;11.60;99.90
76120;DHT22;64852;48.092;-1.640;2022-11-28T08:05:24;11.60;99.90
76120;DHT22;64852;48.092;-1.640;2022-11-28T08:07:50;11.60;99.90
76120;DHT22;64852;48.092;-1.640;2022-11-28T08:10:16;11.60;99.90
76120;DHT22;64852;48.092;-1.640;2022-11-28T08:12:42;11.60;99.90
76120;DHT22;64852;48.092;-1.640;2022-11-28T08:15:08;11.60;99.90
76120;DHT22;64852;48.092;-1.640;2022-11-28T08:17:34;11.50;99.90
76120;DHT22;64852;48.092;-1.640;2022-11-28T08:20:00;11.50;99.90
76120;DHT22;64852;48.092;-1.640;2022-11-28T08:22:26;11.50;99.90
76120;DHT22;64852;48.092;-1.640;2022-11-28T08:24:51;11.50;99.90
76120;DHT22;64852;48.092;-1.640;2022-11-28T08:27:17;11.50;99.90
76120;DHT22;64852;48.092;-1.640;2022-11-28T08:29:42;11.50;99.90
76120;DHT22;64852;48.092;-1.640;2022-11-28T08:32:08;11.40;99.90
76120;DHT22;64852;48.092;-1.640;2022-11-28T08:34:34;11.50;99.90
76120;DHT22;64852;48.092;-1.640;2022-11-28T08:36:59;11.50;99.90
76120;DHT22;64852;48.092;-1.640;2022-11-28T08:39:25;11.60;99.90
76120;DHT22;64852;48.092;-1.640;2022-11-28T08:41:52;11.60;99.90
76120;DHT22;64852;48.092;-1.640;2022-11-28T08:44:18;11.60;99.90
76120;DHT22;64852;48.092;-1.640;2022-11-28T08:46:44;11.60;99.90
76120;DHT22;64852;48.092;-1.640;2022-11-28T08:49:09;11.70;99.90
76120;DHT22;64852;48.092;-1.640;2022-11-28T08:51:35;11.70;99.90
76120;DHT22;64852;48.092;-1.640;2022-11-28T08:54:01;11.90;99.90
76120;DHT22;64852;48.092;-1.640;2022-11-28T08:56:27;11.80;99.90
76120;DHT22;64852;48.092;-1.640;2022-11-28T08:58:53;12.00;99.90
76120;DHT22;64852;48.092;-1.640;2022-11-28T09:01:21;12.00;99.90
76120;DHT22;64852;48.092;-1.640;2022-11-28T09:03:48;12.00;99.90
76120;DHT22;64852;48.092;-1.640;2022-11-28T09:06:14;11.90;99.90
76120;DHT22;64852;48.092;-1.640;2022-11-28T09:08:40;12.00;99.90
76120;DHT22;64852;48.092;-1.640;2022-11-28T09:11:07;12.00;99.90
76120;DHT22;64852;48.092;-1.640;2022-11-28T09:13:35;14.20;99.90
76120;DHT22;64852;48.092;-1.640;2022-11-28T09:16:00;12.00;99.90
76120;DHT22;64852;48.092;-1.640;2022-11-28T09:18:26;12.00;99.90
76120;DHT22;64852;48.092;-1.640;2022-11-28T09:21:05;11.90;99.90
76120;DHT22;64852;48.092;-1.640;2022-11-28T09:23:38;11.90;99.90
76120;DHT22;64852;48.092;-1.640;2022-11-28T09:26:13;12.00;99.90
76120;DHT22;64852;48.092;-1.640;2022-11-28T09:28:38;11.90;99.90
76120;DHT22;64852;48.092;-1.640;2022-11-28T09:31:05;12.00;99.90
76120;DHT22;64852;48.092;-1.640;2022-11-28T09:33:32;12.10;99.90
76120;DHT22;64852;48.092;-1.640;2022-11-28T09:35:58;12.10;99.90
76120;DHT22;64852;48.092;-1.640;2022-11-28T09:38:28;12.30;99.90
76120;DHT22;64852;48.092;-1.640;2022-11-28T09:40:53;12.10;99.90
76120;DHT22;64852;48.092;-1.640;2022-11-28T09:43:41;12.20;99.90
76120;DHT22;64852;48.092;-1.640;2022-11-28T09:46:12;12.20;99.90
76120;DHT22;64852;48.092;-1.640;2022-11-28T09:48:47;12.40;99.90
76120;DHT22;64852;48.092;-1.640;2022-11-28T09:54:08;12.30;99.90
76120;DHT22;64852;48.092;-1.640;2022-11-28T09:56:35;12.30;99.90
76120;DHT22;64852;48.092;-1.640;2022-11-28T09:59:01;12.30;99.90
76120;DHT22;64852;48.092;-1.640;2022-11-28T10:02:01;12.20;99.90
76120;DHT22;64852;48.092;-1.640;2022-11-28T10:04:47;12.00;99.90
76120;DHT22;64852;48.092;-1.640;2022-11-28T10:07:18;12.10;99.90
76120;DHT22;64852;48.092;-1.640;2022-11-28T10:15:22;12.10;99.90
76120;DHT22;64852;48.092;-1.640;2022-11-28T10:20:41;11.40;99.90
76120;DHT22;64852;48.092;-1.640;2022-11-28T10:26:33;11.20;99.90
76120;DHT22;64852;48.092;-1.640;2022-11-28T10:29:26;11.20;99.90
76120;DHT22;64852;48.092;-1.640;2022-11-28T10:31:52;11.20;99.90
76120;DHT22;64852;48.092;-1.640;2022-11-28T10:34:27;11.00;99.90
76120;DHT22;64852;48.092;-1.640;2022-11-28T10:37:39;10.90;99.90
76120;DHT22;64852;48.092;-1.640;2022-11-28T10:39:43;11.00;99.90
76120;DHT22;64852;48.092;-1.640;2022-11-28T10:53:12;11.90;99.90
76120;DHT22;64852;48.092;-1.640;2022-11-28T10:58:57;12.00;99.90
76120;DHT22;64852;48.092;-1.640;2022-11-28T11:01:03;12.00;99.90
76120;DHT22;64852;48.092;-1.640;2022-11-28T11:03:31;12.20;99.90
76120;DHT22;64852;48.092;-1.640;2022-11-28T11:05:59;11.90;99.90
76120;DHT22;64852;48.092;-1.640;2022-11-28T11:08:26;12.00;99.90
76120;DHT22;64852;48.092;-1.640;2022-11-28T11:11:25;12.00;99.90
76120;DHT22;64852;48.092;-1.640;2022-11-28T11:14:07;12.00;99.90
76120;DHT22;64852;48.092;-1.640;2022-11-28T11:16:52;12.10;99.90
76120;DHT22;64852;48.092;-1.640;2022-11-28T11:19:24;12.40;99.90
76120;DHT22;64852;48.092;-1.640;2022-11-28T11:24:26;12.70;99.90
76120;DHT22;64852;48.092;-1.640;2022-11-28T11:26:52;12.80;99.90
76120;DHT22;64852;48.092;-1.640;2022-11-28T11:29:38;12.90;99.90
76120;DHT22;64852;48.092;-1.640;2022-11-28T11:32:06;13.00;99.90
76120;DHT22;64852;48.092;-1.640;2022-11-28T11:34:43;12.80;99.90
76120;DHT22;64852;48.092;-1.640;2022-11-28T11:39:52;12.60;99.90
76120;DHT22;64852;48.092;-1.640;2022-11-28T11:42:29;13.10;99.90
76120;DHT22;64852;48.092;-1.640;2022-11-28T11:44:56;13.40;99.90
76120;DHT22;64852;48.092;-1.640;2022-11-28T11:47:43;13.10;99.90
76120;DHT22;64852;48.092;-1.640;2022-11-28T11:50:20;12.80;99.90
76120;DHT22;64852;48.092;-1.640;2022-11-28T11:53:12;13.00;99.90
76120;DHT22;64852;48.092;-1.640;2022-11-28T11:55:49;13.20;99.90
76120;DHT22;64852;48.092;-1.640;2022-11-28T11:58:25;13.20;99.90
76120;DHT22;64852;48.092;-1.640;2022-11-28T12:00:55;13.20;99.90
76120;DHT22;64852;48.092;-1.640;2022-11-28T12:04:03;13.40;99.90
76120;DHT22;64852;48.092;-1.640;2022-11-28T12:06:37;13.70;99.90
76120;DHT22;64852;48.092;-1.640;2022-11-28T12:11:52;13.60;99.90
76120;DHT22;64852;48.092;-1.640;2022-11-28T12:14:32;13.60;99.90
76120;DHT22;64852;48.092;-1.640;2022-11-28T12:22:15;14.10;99.90
76120;DHT22;64852;48.092;-1.640;2022-11-28T12:30:27;13.60;99.90
76120;DHT22;64852;48.092;-1.640;2022-11-28T12:43:57;13.50;99.90
76120;DHT22;64852;48.092;-1.640;2022-11-28T12:46:41;13.50;99.90
76120;DHT22;64852;48.092;-1.640;2022-11-28T12:49:33;13.40;99.90
76120;DHT22;64852;48.092;-1.640;2022-11-28T12:52:08;13.20;99.90
76120;DHT22;64852;48.092;-1.640;2022-11-28T12:57:45;13.40;99.90
76120;DHT22;64852;48.092;-1.640;2022-11-28T13:00:22;13.40;99.90
76120;DHT22;64852;48.092;-1.640;2022-11-28T13:11:17;13.20;99.90
76120;DHT22;64852;48.092;-1.640;2022-11-28T13:13:57;13.20;99.90
76120;DHT22;64852;48.092;-1.640;2022-11-28T13:19:02;13.80;99.90
76120;DHT22;64852;48.092;-1.640;2022-11-28T13:21:46;13.90;99.90
76120;DHT22;64852;48.092;-1.640;2022-11-28T13:27:28;13.90;99.90
76120;DHT22;64852;48.092;-1.640;2022-11-28T13:30:25;13.80;99.90
76120;DHT22;64852;48.092;-1.640;2022-11-28T13:35:40;13.90;99.90
76120;DHT22;64852;48.092;-1.640;2022-11-28T13:38:25;13.90;99.90
76120;DHT22;64852;48.092;-1.640;2022-11-28T13:43:37;14.10;99.90
76120;DHT22;64852;48.092;-1.640;2022-11-28T13:46:07;14.40;99.90
76120;DHT22;64852;48.092;-1.640;2022-11-28T13:51:14;14.40;99.90
76120;DHT22;64852;48.092;-1.640;2022-11-28T13:53:41;14.30;99.90
76120;DHT22;64852;48.092;-1.640;2022-11-28T14:01:11;13.80;99.90
76120;DHT22;64852;48.092;-1.640;2022-11-28T14:03:51;13.50;99.90
76120;DHT22;64852;48.092;-1.640;2022-11-28T14:06:22;13.70;99.90
76120;DHT22;64852;48.092;-1.640;2022-11-28T14:09:05;13.50;99.90
76120;DHT22;64852;48.092;-1.640;2022-11-28T14:25:21;12.30;99.90
76120;DHT22;64852;48.092;-1.640;2022-11-28T14:27:52;12.50;99.90
76120;DHT22;64852;48.092;-1.640;2022-11-28T14:32:57;12.50;99.90
76120;DHT22;64852;48.092;-1.640;2022-11-28T14:46:18;12.70;99.90
76120;DHT22;64852;48.092;-1.640;2022-11-28T14:56:45;13.30;99.90
76120;DHT22;64852;48.092;-1.640;2022-11-28T14:59:11;13.40;99.90
76120;DHT22;64852;48.092;-1.640;2022-11-28T15:07:26;13.00;99.90
76120;DHT22;64852;48.092;-1.640;2022-11-28T15:12:49;13.10;99.90
76120;DHT22;64852;48.092;-1.640;2022-11-28T15:15:17;13.20;99.90
76120;DHT22;64852;48.092;-1.640;2022-11-28T15:17:46;13.10;99.90
76120;DHT22;64852;48.092;-1.640;2022-11-28T15:20:44;13.10;99.90
76120;DHT22;64852;48.092;-1.640;2022-11-28T15:23:28;13.30;99.90
76120;DHT22;64852;48.092;-1.640;2022-11-28T15:25:56;13.20;99.90
76120;DHT22;64852;48.092;-1.640;2022-11-28T15:28:23;12.90;99.90
76120;DHT22;64852;48.092;-1.640;2022-11-28T15:30:56;12.90;99.90
76120;DHT22;64852;48.092;-1.640;2022-11-28T15:33:24;12.80;99.90
76120;DHT22;64852;48.092;-1.640;2022-11-28T15:35:59;12.80;99.90
76120;DHT22;64852;48.092;-1.640;2022-11-28T15:38:26;12.60;99.90
76120;DHT22;64852;48.092;-1.640;2022-11-28T15:40:53;12.70;99.90
76120;DHT22;64852;48.092;-1.640;2022-11-28T15:43:20;12.70;99.90
76120;DHT22;64852;48.092;-1.640;2022-11-28T15:45:56;12.70;99.90
76120;DHT22;64852;48.092;-1.640;2022-11-28T15:50:51;12.70;99.90
76120;DHT22;64852;48.092;-1.640;2022-11-28T15:53:19;12.80;99.90
76120;DHT22;64852;48.092;-1.640;2022-11-28T15:55:45;12.60;99.90
76120;DHT22;64852;48.092;-1.640;2022-11-28T15:58:23;12.70;99.90
76120;DHT22;64852;48.092;-1.640;2022-11-28T16:00:58;12.60;99.90
76120;DHT22;64852;48.092;-1.640;2022-11-28T16:03:29;12.60;99.90
76120;DHT22;64852;48.092;-1.640;2022-11-28T16:05:57;12.70;99.90
76120;DHT22;64852;48.092;-1.640;2022-11-28T16:08:27;12.70;99.90
76120;DHT22;64852;48.092;-1.640;2022-11-28T16:10:58;12.50;99.90
76120;DHT22;64852;48.092;-1.640;2022-11-28T16:13:26;12.70;99.90
76120;DHT22;64852;48.092;-1.640;2022-11-28T16:15:54;12.60;99.90
76120;DHT22;64852;48.092;-1.640;2022-11-28T16:18:23;12.60;99.90
76120;DHT22;64852;48.092;-1.640;2022-11-28T16:20:50;12.60;99.90
76120;DHT22;64852;48.092;-1.640;2022-11-28T16:23:24;12.60;99.90
76120;DHT22;64852;48.092;-1.640;2022-11-28T16:26:05;12.60;99.90
76120;DHT22;64852;48.092;-1.640;2022-11-28T16:28:36;12.40;99.90
76120;DHT22;64852;48.092;-1.640;2022-11-28T16:31:10;12.50;99.90
76120;DHT22;64852;48.092;-1.640;2022-11-28T16:41:30;12.60;99.90
76120;DHT22;64852;48.092;-1.640;2022-11-28T16:44:13;12.60;99.90
76120;DHT22;64852;48.092;-1.640;2022-11-28T16:46:54;12.50;99.90
76120;DHT22;64852;48.092;-1.640;2022-11-28T16:49:41;12.40;99.90
76120;DHT22;64852;48.092;-1.640;2022-11-28T16:57:15;12.40;99.90
76120;DHT22;64852;48.092;-1.640;2022-11-28T16:59:42;12.30;99.90
76120;DHT22;64852;48.092;-1.640;2022-11-28T17:02:20;12.10;99.90
76120;DHT22;64852;48.092;-1.640;2022-11-28T17:04:47;11.80;99.90
76120;DHT22;64852;48.092;-1.640;2022-11-28T17:07:15;11.80;99.90
76120;DHT22;64852;48.092;-1.640;2022-11-28T17:09:42;11.80;99.90
76120;DHT22;64852;48.092;-1.640;2022-11-28T17:14:47;11.80;99.90
76120;DHT22;64852;48.092;-1.640;2022-11-28T17:17:14;12.00;99.90
76120;DHT22;64852;48.092;-1.640;2022-11-28T17:19:40;12.00;99.90
76120;DHT22;64852;48.092;-1.640;2022-11-28T17:22:13;12.00;99.90
76120;DHT22;64852;48.092;-1.640;2022-11-28T17:24:40;12.00;99.90
76120;DHT22;64852;48.092;-1.640;2022-11-28T17:27:06;11.90;99.90
76120;DHT22;64852;48.092;-1.640;2022-11-28T17:29:34;11.90;99.90
76120;DHT22;64852;48.092;-1.640;2022-11-28T17:32:00;11.80;99.90
76120;DHT22;64852;48.092;-1.640;2022-11-28T17:34:29;11.70;99.90
76120;DHT22;64852;48.092;-1.640;2022-11-28T17:36:56;11.70;99.90
76120;DHT22;64852;48.092;-1.640;2022-11-28T17:39:22;11.70;99.90
76120;DHT22;64852;48.092;-1.640;2022-11-28T17:41:48;11.50;99.90
76120;DHT22;64852;48.092;-1.640;2022-11-28T17:44:28;11.50;99.90
76120;DHT22;64852;48.092;-1.640;2022-11-28T17:46:55;11.40;99.90
76120;DHT22;64852;48.092;-1.640;2022-11-28T17:49:22;11.40;99.90
76120;DHT22;64852;48.092;-1.640;2022-11-28T17:51:49;11.40;99.90
76120;DHT22;64852;48.092;-1.640;2022-11-28T17:54:16;11.40;99.90
76120;DHT22;64852;48.092;-1.640;2022-11-28T17:56:49;11.20;99.90
76120;DHT22;64852;48.092;-1.640;2022-11-28T17:59:18;11.20;99.90
76120;DHT22;64852;48.092;-1.640;2022-11-28T18:01:44;11.20;99.90
76120;DHT22;64852;48.092;-1.640;2022-11-28T18:04:10;11.20;99.90
76120;DHT22;64852;48.092;-1.640;2022-11-28T18:06:36;11.30;99.90
76120;DHT22;64852;48.092;-1.640;2022-11-28T18:09:03;11.20;99.90
76120;DHT22;64852;48.092;-1.640;2022-11-28T18:11:29;11.30;99.90
76120;DHT22;64852;48.092;-1.640;2022-11-28T18:13:56;11.40;99.90
76120;DHT22;64852;48.092;-1.640;2022-11-28T18:16:23;11.40;99.90
76120;DHT22;64852;48.092;-1.640;2022-11-28T18:18:53;11.40;99.90
76120;DHT22;64852;48.092;-1.640;2022-11-28T18:21:19;11.00;99.90
76120;DHT22;64852;48.092;-1.640;2022-11-28T18:23:47;11.10;99.90
76120;DHT22;64852;48.092;-1.640;2022-11-28T18:26:19;11.20;99.90
76120;DHT22;64852;48.092;-1.640;2022-11-28T18:28:45;11.20;99.90
76120;DHT22;64852;48.092;-1.640;2022-11-28T18:31:14;11.10;99.90
76120;DHT22;64852;48.092;-1.640;2022-11-28T18:33:41;11.00;99.90
76120;DHT22;64852;48.092;-1.640;2022-11-28T18:36:15;10.90;99.90
76120;DHT22;64852;48.092;-1.640;2022-11-28T18:38:41;11.00;99.90
76120;DHT22;64852;48.092;-1.640;2022-11-28T18:41:09;10.90;99.90
76120;DHT22;64852;48.092;-1.640;2022-11-28T18:43:36;10.70;99.90
76120;DHT22;64852;48.092;-1.640;2022-11-28T18:46:07;10.90;99.90
76120;DHT22;64852;48.092;-1.640;2022-11-28T18:48:35;10.80;99.90
76120;DHT22;64852;48.092;-1.640;2022-11-28T18:51:25;10.80;99.90
76120;DHT22;64852;48.092;-1.640;2022-11-28T18:53:52;10.80;99.90